sensor_id;sensor_type;location;lat;lon;timestamp;P1;durP1;ratioP1;P2;durP2;ratioP2
14251;SDS011;7210;51.502;10.722;2022-10-13T00:00:58;10.17;;;7.93;;
14251;SDS011;7210;51.502;10.722;2022-10-13T00:03:25;10.77;;;6.80;;
14251;SDS011;7210;51.502;10.722;2022-10-13T00:05:53;10.77;;;7.83;;
14251;SDS011;7210;51.502;10.722;2022-10-13T00:08:21;11.53;;;8.40;;
14251;SDS011;7210;51.502;10.722;2022-10-13T00:10:50;10.73;;;7.80;;
14251;SDS011;7210;51.502;10.722;2022-10-13T00:13:22;11.93;;;8.17;;
14251;SDS011;7210;51.502;10.722;2022-10-13T00:15:49;9.50;;;8.23;;
14251;SDS011;7210;51.502;10.722;2022-10-13T00:18:17;12.10;;;7.97;;
14251;SDS011;7210;51.502;10.722;2022-10-13T00:20:45;10.13;;;8.17;;
14251;SDS011;7210;51.502;10.722;2022-10-13T00:23:15;14.40;;;9.40;;
14251;SDS011;7210;51.502;10.722;2022-10-13T00:25:45;11.57;;;8.40;;
14251;SDS011;7210;51.502;10.722;2022-10-13T00:28:14;12.80;;;8.93;;
14251;SDS011;7210;51.502;10.722;2022-10-13T00:30:44;11.87;;;8.43;;
14251;SDS011;7210;51.502;10.722;2022-10-13T00:33:12;11.03;;;8.77;;
14251;SDS011;7210;51.502;10.722;2022-10-13T00:35:40;10.40;;;8.27;;
14251;SDS011;7210;51.502;10.722;2022-10-13T00:38:09;12.03;;;8.40;;
14251;SDS011;7210;51.502;10.722;2022-10-13T00:40:46;12.70;;;8.77;;
14251;SDS011;7210;51.502;10.722;2022-10-13T00:43:16;11.57;;;8.47;;
14251;SDS011;7210;51.502;10.722;2022-10-13T00:45:45;10.77;;;8.20;;
14251;SDS011;7210;51.502;10.722;2022-10-13T00:48:14;12.57;;;8.50;;
14251;SDS011;7210;51.502;10.722;2022-10-13T00:50:44;11.70;;;8.60;;
14251;SDS011;7210;51.502;10.722;2022-10-13T00:53:12;11.07;;;8.50;;
14251;SDS011;7210;51.502;10.722;2022-10-13T00:55:43;12.00;;;8.40;;
14251;SDS011;7210;51.502;10.722;2022-10-13T00:58:14;12.27;;;8.80;;
14251;SDS011;7210;51.502;10.722;2022-10-13T01:00:45;12.80;;;8.87;;
14251;SDS011;7210;51.502;10.722;2022-10-13T01:03:16;11.43;;;8.33;;
14251;SDS011;7210;51.502;10.722;2022-10-13T01:05:44;13.00;;;8.53;;
14251;SDS011;7210;51.502;10.722;2022-10-13T01:08:15;11.90;;;7.50;;
14251;SDS011;7210;51.502;10.722;2022-10-13T01:10:51;12.37;;;8.33;;
14251;SDS011;7210;51.502;10.722;2022-10-13T01:13:29;15.47;;;8.93;;
14251;SDS011;7210;51.502;10.722;2022-10-13T01:16:08;11.63;;;8.20;;
14251;SDS011;7210;51.502;10.722;2022-10-13T01:18:47;10.83;;;8.07;;
14251;SDS011;7210;51.502;10.722;2022-10-13T01:21:27;12.07;;;8.10;;
14251;SDS011;7210;51.502;10.722;2022-10-13T01:24:24;10.93;;;8.23;;
14251;SDS011;7210;51.502;10.722;2022-10-13T01:27:13;10.20;;;7.57;;
14251;SDS011;7210;51.502;10.722;2022-10-13T01:30:03;10.73;;;7.13;;
14251;SDS011;7210;51.502;10.722;2022-10-13T01:35:49;11.23;;;7.37;;
14251;SDS011;7210;51.502;10.722;2022-10-13T01:38:35;11.27;;;8.10;;
14251;SDS011;7210;51.502;10.722;2022-10-13T01:41:11;9.20;;;7.97;;
14251;SDS011;7210;51.502;10.722;2022-10-13T01:43:50;9.10;;;7.97;;
14251;SDS011;7210;51.502;10.722;2022-10-13T01:46:25;10.57;;;8.53;;
14251;SDS011;7210;51.502;10.722;2022-10-13T01:48:58;14.00;;;8.10;;
14251;SDS011;7210;51.502;10.722;2022-10-13T01:51:30;10.17;;;7.93;;
14251;SDS011;7210;51.502;10.722;2022-10-13T01:54:01;12.90;;;8.17;;
14251;SDS011;7210;51.502;10.722;2022-10-13T01:56:29;12.53;;;8.13;;
14251;SDS011;7210;51.502;10.722;2022-10-13T01:58:57;11.80;;;8.83;;
14251;SDS011;7210;51.502;10.722;2022-10-13T02:01:36;11.87;;;8.17;;
14251;SDS011;7210;51.502;10.722;2022-10-13T02:04:24;9.33;;;7.97;;
14251;SDS011;7210;51.502;10.722;2022-10-13T02:09:56;10.27;;;7.63;;
14251;SDS011;7210;51.502;10.722;2022-10-13T02:12:33;9.80;;;8.33;;
14251;SDS011;7210;51.502;10.722;2022-10-13T02:15:08;9.97;;;8.17;;
14251;SDS011;7210;51.502;10.722;2022-10-13T02:20:35;11.77;;;8.70;;
14251;SDS011;7210;51.502;10.722;2022-10-13T02:23:03;12.37;;;8.73;;
14251;SDS011;7210;51.502;10.722;2022-10-13T02:25:37;13.07;;;8.80;;
14251;SDS011;7210;51.502;10.722;2022-10-13T02:28:07;11.43;;;8.77;;
14251;SDS011;7210;51.502;10.722;2022-10-13T02:30:40;13.53;;;9.40;;
14251;SDS011;7210;51.502;10.722;2022-10-13T02:33:09;11.00;;;8.67;;
14251;SDS011;7210;51.502;10.722;2022-10-13T02:35:40;13.67;;;8.37;;
14251;SDS011;7210;51.502;10.722;2022-10-13T02:38:09;13.20;;;8.57;;
14251;SDS011;7210;51.502;10.722;2022-10-13T02:40:37;11.70;;;8.33;;
14251;SDS011;7210;51.502;10.722;2022-10-13T02:43:04;10.27;;;7.63;;
14251;SDS011;7210;51.502;10.722;2022-10-13T02:45:31;13.37;;;8.77;;
14251;SDS011;7210;51.502;10.722;2022-10-13T02:47:59;11.13;;;8.40;;
14251;SDS011;7210;51.502;10.722;2022-10-13T02:50:26;9.60;;;8.30;;
14251;SDS011;7210;51.502;10.722;2022-10-13T02:52:56;11.67;;;8.23;;
14251;SDS011;7210;51.502;10.722;2022-10-13T02:55:28;10.27;;;7.63;;
14251;SDS011;7210;51.502;10.722;2022-10-13T02:57:56;12.17;;;8.27;;
14251;SDS011;7210;51.502;10.722;2022-10-13T03:00:23;11.37;;;7.60;;
14251;SDS011;7210;51.502;10.722;2022-10-13T03:02:51;11.97;;;8.20;;
14251;SDS011;7210;51.502;10.722;2022-10-13T03:05:19;11.47;;;8.53;;
14251;SDS011;7210;51.502;10.722;2022-10-13T03:07:46;10.20;;;8.33;;
14251;SDS011;7210;51.502;10.722;2022-10-13T03:10:15;9.67;;;7.73;;
14251;SDS011;7210;51.502;10.722;2022-10-13T03:12:45;13.47;;;8.17;;
14251;SDS011;7210;51.502;10.722;2022-10-13T03:15:21;11.97;;;7.63;;
14251;SDS011;7210;51.502;10.722;2022-10-13T03:17:53;11.10;;;8.33;;
14251;SDS011;7210;51.502;10.722;2022-10-13T03:20:22;10.53;;;8.07;;
14251;SDS011;7210;51.502;10.722;2022-10-13T03:22:50;11.57;;;7.83;;
14251;SDS011;7210;51.502;10.722;2022-10-13T03:25:18;12.50;;;8.00;;
14251;SDS011;7210;51.502;10.722;2022-10-13T03:27:46;10.87;;;7.73;;
14251;SDS011;7210;51.502;10.722;2022-10-13T03:30:13;11.37;;;8.23;;
14251;SDS011;7210;51.502;10.722;2022-10-13T03:32:40;9.40;;;7.43;;
14251;SDS011;7210;51.502;10.722;2022-10-13T03:35:08;10.60;;;7.53;;
14251;SDS011;7210;51.502;10.722;2022-10-13T03:37:35;9.30;;;7.63;;
14251;SDS011;7210;51.502;10.722;2022-10-13T03:40:03;9.73;;;7.87;;
14251;SDS011;7210;51.502;10.722;2022-10-13T03:42:33;10.27;;;8.47;;
14251;SDS011;7210;51.502;10.722;2022-10-13T03:45:01;14.73;;;8.23;;
14251;SDS011;7210;51.502;10.722;2022-10-13T03:47:33;10.03;;;8.00;;
14251;SDS011;7210;51.502;10.722;2022-10-13T03:50:01;11.30;;;8.70;;
14251;SDS011;7210;51.502;10.722;2022-10-13T03:52:29;11.27;;;8.13;;
14251;SDS011;7210;51.502;10.722;2022-10-13T03:54:57;10.20;;;7.47;;
14251;SDS011;7210;51.502;10.722;2022-10-13T03:57:24;8.40;;;7.50;;
14251;SDS011;7210;51.502;10.722;2022-10-13T03:59:53;9.90;;;8.00;;
14251;SDS011;7210;51.502;10.722;2022-10-13T04:02:24;9.50;;;8.50;;
14251;SDS011;7210;51.502;10.722;2022-10-13T04:04:53;11.63;;;9.03;;
14251;SDS011;7210;51.502;10.722;2022-10-13T04:07:20;12.00;;;7.60;;
14251;SDS011;7210;51.502;10.722;2022-10-13T04:09:48;11.97;;;8.77;;
14251;SDS011;7210;51.502;10.722;2022-10-13T04:12:15;9.23;;;8.13;;
14251;SDS011;7210;51.502;10.722;2022-10-13T04:14:42;11.63;;;7.97;;
14251;SDS011;7210;51.502;10.722;2022-10-13T04:17:11;12.30;;;8.20;;
14251;SDS011;7210;51.502;10.722;2022-10-13T04:19:38;10.57;;;8.40;;
14251;SDS011;7210;51.502;10.722;2022-10-13T04:22:06;12.60;;;8.93;;
14251;SDS011;7210;51.502;10.722;2022-10-13T04:24:33;21.17;;;16.03;;
14251;SDS011;7210;51.502;10.722;2022-10-13T04:27:01;11.83;;;9.00;;
14251;SDS011;7210;51.502;10.722;2022-10-13T04:29:28;10.43;;;7.70;;
14251;SDS011;7210;51.502;10.722;2022-10-13T04:31:57;11.63;;;9.57;;
14251;SDS011;7210;51.502;10.722;2022-10-13T04:34:26;13.23;;;10.33;;
14251;SDS011;7210;51.502;10.722;2022-10-13T04:36:54;16.60;;;12.13;;
14251;SDS011;7210;51.502;10.722;2022-10-13T04:39:21;17.50;;;12.53;;
14251;SDS011;7210;51.502;10.722;2022-10-13T04:41:49;12.87;;;11.20;;
14251;SDS011;7210;51.502;10.722;2022-10-13T04:44:16;12.83;;;10.90;;
14251;SDS011;7210;51.502;10.722;2022-10-13T04:46:44;14.60;;;10.97;;
14251;SDS011;7210;51.502;10.722;2022-10-13T04:49:11;12.17;;;9.67;;
14251;SDS011;7210;51.502;10.722;2022-10-13T04:51:40;9.80;;;8.80;;
14251;SDS011;7210;51.502;10.722;2022-10-13T04:54:10;10.43;;;8.80;;
14251;SDS011;7210;51.502;10.722;2022-10-13T04:56:39;10.47;;;8.50;;
14251;SDS011;7210;51.502;10.722;2022-10-13T04:59:06;12.10;;;8.90;;
14251;SDS011;7210;51.502;10.722;2022-10-13T05:01:33;10.10;;;8.30;;
14251;SDS011;7210;51.502;10.722;2022-10-13T05:04:04;10.23;;;8.40;;
14251;SDS011;7210;51.502;10.722;2022-10-13T05:06:34;14.10;;;8.73;;
14251;SDS011;7210;51.502;10.722;2022-10-13T05:09:06;9.53;;;8.30;;
14251;SDS011;7210;51.502;10.722;2022-10-13T05:11:34;14.23;;;8.70;;
14251;SDS011;7210;51.502;10.722;2022-10-13T05:14:02;11.07;;;8.43;;
14251;SDS011;7210;51.502;10.722;2022-10-13T05:16:40;9.83;;;8.13;;
14251;SDS011;7210;51.502;10.722;2022-10-13T05:19:08;12.70;;;8.73;;
14251;SDS011;7210;51.502;10.722;2022-10-13T05:21:35;13.30;;;8.50;;
14251;SDS011;7210;51.502;10.722;2022-10-13T05:24:02;10.27;;;8.47;;
14251;SDS011;7210;51.502;10.722;2022-10-13T05:26:34;11.20;;;9.30;;
14251;SDS011;7210;51.502;10.722;2022-10-13T05:29:01;13.77;;;9.03;;
14251;SDS011;7210;51.502;10.722;2022-10-13T05:31:34;13.10;;;9.37;;
14251;SDS011;7210;51.502;10.722;2022-10-13T05:34:02;10.70;;;9.13;;
14251;SDS011;7210;51.502;10.722;2022-10-13T05:36:30;12.27;;;9.70;;
14251;SDS011;7210;51.502;10.722;2022-10-13T05:39:00;14.33;;;9.30;;
14251;SDS011;7210;51.502;10.722;2022-10-13T05:41:31;11.90;;;8.70;;
14251;SDS011;7210;51.502;10.722;2022-10-13T05:44:04;14.47;;;12.07;;
14251;SDS011;7210;51.502;10.722;2022-10-13T05:46:40;17.10;;;10.07;;
14251;SDS011;7210;51.502;10.722;2022-10-13T05:49:08;12.73;;;9.27;;
14251;SDS011;7210;51.502;10.722;2022-10-13T05:51:36;12.40;;;8.60;;
14251;SDS011;7210;51.502;10.722;2022-10-13T05:54:09;10.53;;;9.17;;
14251;SDS011;7210;51.502;10.722;2022-10-13T05:56:47;12.60;;;8.90;;
14251;SDS011;7210;51.502;10.722;2022-10-13T05:59:23;10.50;;;8.90;;
14251;SDS011;7210;51.502;10.722;2022-10-13T06:01:55;11.37;;;8.80;;
14251;SDS011;7210;51.502;10.722;2022-10-13T06:04:29;12.53;;;9.27;;
14251;SDS011;7210;51.502;10.722;2022-10-13T06:07:02;14.40;;;8.70;;
14251;SDS011;7210;51.502;10.722;2022-10-13T06:09:31;11.20;;;8.97;;
14251;SDS011;7210;51.502;10.722;2022-10-13T06:12:03;14.33;;;9.63;;
14251;SDS011;7210;51.502;10.722;2022-10-13T06:14:31;15.47;;;11.00;;
14251;SDS011;7210;51.502;10.722;2022-10-13T06:17:01;14.90;;;10.97;;
14251;SDS011;7210;51.502;10.722;2022-10-13T06:19:28;21.90;;;14.80;;
14251;SDS011;7210;51.502;10.722;2022-10-13T06:22:04;18.23;;;11.47;;
14251;SDS011;7210;51.502;10.722;2022-10-13T06:24:31;17.73;;;12.23;;
14251;SDS011;7210;51.502;10.722;2022-10-13T06:26:58;17.77;;;12.83;;
14251;SDS011;7210;51.502;10.722;2022-10-13T06:29:27;24.73;;;13.17;;
14251;SDS011;7210;51.502;10.722;2022-10-13T06:31:54;28.90;;;14.67;;
14251;SDS011;7210;51.502;10.722;2022-10-13T06:34:22;12.30;;;11.00;;
14251;SDS011;7210;51.502;10.722;2022-10-13T06:36:49;17.73;;;11.30;;
14251;SDS011;7210;51.502;10.722;2022-10-13T06:39:16;12.80;;;10.77;;
14251;SDS011;7210;51.502;10.722;2022-10-13T06:41:44;20.10;;;11.67;;
14251;SDS011;7210;51.502;10.722;2022-10-13T06:44:11;17.80;;;12.40;;
14251;SDS011;7210;51.502;10.722;2022-10-13T06:46:40;15.53;;;11.00;;
14251;SDS011;7210;51.502;10.722;2022-10-13T06:49:07;14.40;;;10.63;;
14251;SDS011;7210;51.502;10.722;2022-10-13T06:51:35;17.13;;;9.90;;
14251;SDS011;7210;51.502;10.722;2022-10-13T06:54:02;14.97;;;10.03;;
14251;SDS011;7210;51.502;10.722;2022-10-13T06:56:31;14.80;;;10.73;;
14251;SDS011;7210;51.502;10.722;2022-10-13T06:59:05;14.60;;;10.27;;
14251;SDS011;7210;51.502;10.722;2022-10-13T07:01:34;12.27;;;9.90;;
14251;SDS011;7210;51.502;10.722;2022-10-13T07:04:08;17.93;;;10.73;;
14251;SDS011;7210;51.502;10.722;2022-10-13T07:06:35;13.67;;;10.80;;
14251;SDS011;7210;51.502;10.722;2022-10-13T07:09:03;16.17;;;11.27;;
14251;SDS011;7210;51.502;10.722;2022-10-13T07:11:31;16.90;;;10.00;;
14251;SDS011;7210;51.502;10.722;2022-10-13T07:13:59;19.43;;;10.37;;
14251;SDS011;7210;51.502;10.722;2022-10-13T07:16:27;12.37;;;10.50;;
14251;SDS011;7210;51.502;10.722;2022-10-13T07:18:54;11.57;;;9.53;;
14251;SDS011;7210;51.502;10.722;2022-10-13T07:21:23;13.57;;;10.00;;
14251;SDS011;7210;51.502;10.722;2022-10-13T07:23:50;14.67;;;10.30;;
14251;SDS011;7210;51.502;10.722;2022-10-13T07:26:17;12.70;;;9.83;;
14251;SDS011;7210;51.502;10.722;2022-10-13T07:28:45;12.33;;;10.20;;
14251;SDS011;7210;51.502;10.722;2022-10-13T07:31:13;15.63;;;10.63;;
14251;SDS011;7210;51.502;10.722;2022-10-13T07:33:43;12.87;;;10.17;;
14251;SDS011;7210;51.502;10.722;2022-10-13T07:36:15;13.37;;;10.80;;
14251;SDS011;7210;51.502;10.722;2022-10-13T07:38:44;16.23;;;10.50;;
14251;SDS011;7210;51.502;10.722;2022-10-13T07:41:13;14.90;;;10.23;;
14251;SDS011;7210;51.502;10.722;2022-10-13T07:43:42;17.87;;;12.60;;
14251;SDS011;7210;51.502;10.722;2022-10-13T07:46:10;21.97;;;14.80;;
14251;SDS011;7210;51.502;10.722;2022-10-13T07:48:41;18.27;;;13.20;;
14251;SDS011;7210;51.502;10.722;2022-10-13T07:51:09;16.57;;;12.30;;
14251;SDS011;7210;51.502;10.722;2022-10-13T07:53:38;27.90;;;15.50;;
14251;SDS011;7210;51.502;10.722;2022-10-13T07:56:09;25.07;;;15.83;;
14251;SDS011;7210;51.502;10.722;2022-10-13T07:58:39;24.70;;;14.73;;
14251;SDS011;7210;51.502;10.722;2022-10-13T08:01:08;20.63;;;13.70;;
14251;SDS011;7210;51.502;10.722;2022-10-13T08:03:37;23.80;;;15.10;;
14251;SDS011;7210;51.502;10.722;2022-10-13T08:06:06;23.50;;;15.07;;
14251;SDS011;7210;51.502;10.722;2022-10-13T08:08:34;20.60;;;14.50;;
14251;SDS011;7210;51.502;10.722;2022-10-13T08:11:02;19.60;;;14.83;;
14251;SDS011;7210;51.502;10.722;2022-10-13T08:13:34;20.20;;;14.47;;
14251;SDS011;7210;51.502;10.722;2022-10-13T08:16:18;21.77;;;14.80;;
14251;SDS011;7210;51.502;10.722;2022-10-13T08:18:46;24.83;;;14.47;;
14251;SDS011;7210;51.502;10.722;2022-10-13T08:21:17;25.50;;;14.23;;
14251;SDS011;7210;51.502;10.722;2022-10-13T08:23:46;18.43;;;13.27;;
14251;SDS011;7210;51.502;10.722;2022-10-13T08:26:15;20.20;;;14.70;;
14251;SDS011;7210;51.502;10.722;2022-10-13T08:28:48;21.70;;;15.10;;
14251;SDS011;7210;51.502;10.722;2022-10-13T08:31:15;18.03;;;13.97;;
14251;SDS011;7210;51.502;10.722;2022-10-13T08:33:43;23.40;;;14.80;;
14251;SDS011;7210;51.502;10.722;2022-10-13T08:36:13;19.60;;;14.53;;
14251;SDS011;7210;51.502;10.722;2022-10-13T08:38:42;20.93;;;14.07;;
14251;SDS011;7210;51.502;10.722;2022-10-13T08:41:12;21.60;;;15.47;;
14251;SDS011;7210;51.502;10.722;2022-10-13T08:43:44;20.07;;;15.13;;
14251;SDS011;7210;51.502;10.722;2022-10-13T08:46:18;23.40;;;16.23;;
14251;SDS011;7210;51.502;10.722;2022-10-13T08:48:52;23.50;;;16.13;;
14251;SDS011;7210;51.502;10.722;2022-10-13T08:51:23;22.47;;;15.83;;
14251;SDS011;7210;51.502;10.722;2022-10-13T08:53:50;29.10;;;19.80;;
14251;SDS011;7210;51.502;10.722;2022-10-13T08:56:18;23.23;;;17.23;;
14251;SDS011;7210;51.502;10.722;2022-10-13T08:58:52;22.10;;;16.90;;
14251;SDS011;7210;51.502;10.722;2022-10-13T09:01:21;25.50;;;16.53;;
14251;SDS011;7210;51.502;10.722;2022-10-13T09:03:53;22.83;;;16.90;;
14251;SDS011;7210;51.502;10.722;2022-10-13T09:06:26;22.53;;;16.17;;
14251;SDS011;7210;51.502;10.722;2022-10-13T09:09:03;19.63;;;15.47;;
14251;SDS011;7210;51.502;10.722;2022-10-13T09:11:35;26.23;;;17.27;;
14251;SDS011;7210;51.502;10.722;2022-10-13T09:14:07;28.03;;;18.53;;
14251;SDS011;7210;51.502;10.722;2022-10-13T09:16:37;22.17;;;16.93;;
14251;SDS011;7210;51.502;10.722;2022-10-13T09:19:11;24.90;;;17.13;;
14251;SDS011;7210;51.502;10.722;2022-10-13T09:21:46;24.13;;;18.07;;
14251;SDS011;7210;51.502;10.722;2022-10-13T09:24:15;24.10;;;18.83;;
14251;SDS011;7210;51.502;10.722;2022-10-13T09:26:46;26.23;;;18.33;;
14251;SDS011;7210;51.502;10.722;2022-10-13T09:29:20;22.73;;;18.43;;
14251;SDS011;7210;51.502;10.722;2022-10-13T09:31:52;23.50;;;18.30;;
14251;SDS011;7210;51.502;10.722;2022-10-13T09:34:39;21.33;;;17.60;;
14251;SDS011;7210;51.502;10.722;2022-10-13T09:37:10;23.80;;;18.13;;
14251;SDS011;7210;51.502;10.722;2022-10-13T09:39:45;24.33;;;18.17;;
14251;SDS011;7210;51.502;10.722;2022-10-13T09:42:28;26.03;;;18.37;;
14251;SDS011;7210;51.502;10.722;2022-10-13T09:45:12;21.50;;;17.77;;
14251;SDS011;7210;51.502;10.722;2022-10-13T09:47:47;29.03;;;18.53;;
14251;SDS011;7210;51.502;10.722;2022-10-13T09:50:17;21.23;;;18.57;;
14251;SDS011;7210;51.502;10.722;2022-10-13T09:52:50;21.73;;;17.43;;
14251;SDS011;7210;51.502;10.722;2022-10-13T09:55:26;24.57;;;19.47;;
14251;SDS011;7210;51.502;10.722;2022-10-13T09:57:58;22.83;;;18.47;;
14251;SDS011;7210;51.502;10.722;2022-10-13T10:00:32;21.53;;;18.47;;
14251;SDS011;7210;51.502;10.722;2022-10-13T10:03:04;23.30;;;19.50;;
14251;SDS011;7210;51.502;10.722;2022-10-13T10:05:43;19.70;;;17.60;;
14251;SDS011;7210;51.502;10.722;2022-10-13T10:08:19;21.73;;;17.77;;
14251;SDS011;7210;51.502;10.722;2022-10-13T10:10:55;23.90;;;19.73;;
14251;SDS011;7210;51.502;10.722;2022-10-13T10:13:27;22.83;;;18.57;;
14251;SDS011;7210;51.502;10.722;2022-10-13T10:15:57;21.07;;;18.77;;
14251;SDS011;7210;51.502;10.722;2022-10-13T10:18:33;20.80;;;18.23;;
14251;SDS011;7210;51.502;10.722;2022-10-13T10:21:09;21.70;;;18.57;;
14251;SDS011;7210;51.502;10.722;2022-10-13T10:23:51;21.17;;;18.30;;
14251;SDS011;7210;51.502;10.722;2022-10-13T10:26:27;22.77;;;19.20;;
14251;SDS011;7210;51.502;10.722;2022-10-13T10:29:16;20.73;;;18.37;;
14251;SDS011;7210;51.502;10.722;2022-10-13T10:32:08;21.77;;;17.77;;
14251;SDS011;7210;51.502;10.722;2022-10-13T10:34:53;25.20;;;19.60;;
14251;SDS011;7210;51.502;10.722;2022-10-13T10:37:42;21.57;;;19.03;;
14251;SDS011;7210;51.502;10.722;2022-10-13T10:40:31;21.33;;;18.40;;
14251;SDS011;7210;51.502;10.722;2022-10-13T10:43:15;20.17;;;17.97;;
14251;SDS011;7210;51.502;10.722;2022-10-13T10:46:10;19.27;;;16.87;;
14251;SDS011;7210;51.502;10.722;2022-10-13T10:48:49;22.97;;;18.70;;
14251;SDS011;7210;51.502;10.722;2022-10-13T10:51:25;23.03;;;18.73;;
14251;SDS011;7210;51.502;10.722;2022-10-13T10:54:01;20.17;;;16.57;;
14251;SDS011;7210;51.502;10.722;2022-10-13T10:56:50;21.53;;;16.83;;
14251;SDS011;7210;51.502;10.722;2022-10-13T10:59:25;23.03;;;18.53;;
14251;SDS011;7210;51.502;10.722;2022-10-13T11:02:11;20.63;;;18.43;;
14251;SDS011;7210;51.502;10.722;2022-10-13T11:04:57;24.10;;;17.50;;
14251;SDS011;7210;51.502;10.722;2022-10-13T11:10:25;19.23;;;16.03;;
14251;SDS011;7210;51.502;10.722;2022-10-13T11:15:51;17.77;;;14.47;;
14251;SDS011;7210;51.502;10.722;2022-10-13T11:24:52;17.77;;;14.23;;
14251;SDS011;7210;51.502;10.722;2022-10-13T11:27:42;17.00;;;13.43;;
14251;SDS011;7210;51.502;10.722;2022-10-13T11:33:33;17.43;;;13.10;;
14251;SDS011;7210;51.502;10.722;2022-10-13T11:42:49;16.50;;;12.33;;
14251;SDS011;7210;51.502;10.722;2022-10-13T11:45:58;13.87;;;11.20;;
14251;SDS011;7210;51.502;10.722;2022-10-13T11:52:26;13.13;;;9.03;;
14251;SDS011;7210;51.502;10.722;2022-10-13T11:55:16;10.73;;;8.43;;
14251;SDS011;7210;51.502;10.722;2022-10-13T11:58:06;10.93;;;6.67;;
14251;SDS011;7210;51.502;10.722;2022-10-13T12:00:35;8.63;;;5.30;;
14251;SDS011;7210;51.502;10.722;2022-10-13T12:03:02;8.57;;;6.07;;
14251;SDS011;7210;51.502;10.722;2022-10-13T12:05:29;11.10;;;7.47;;
14251;SDS011;7210;51.502;10.722;2022-10-13T12:07:58;13.17;;;8.40;;
14251;SDS011;7210;51.502;10.722;2022-10-13T12:10:32;12.43;;;8.70;;
14251;SDS011;7210;51.502;10.722;2022-10-13T12:13:04;11.10;;;8.70;;
14251;SDS011;7210;51.502;10.722;2022-10-13T12:15:33;10.27;;;8.93;;
14251;SDS011;7210;51.502;10.722;2022-10-13T12:18:15;10.73;;;8.97;;
14251;SDS011;7210;51.502;10.722;2022-10-13T12:20:51;11.97;;;8.00;;
14251;SDS011;7210;51.502;10.722;2022-10-13T12:23:20;15.83;;;8.53;;
14251;SDS011;7210;51.502;10.722;2022-10-13T12:25:49;11.50;;;8.53;;
14251;SDS011;7210;51.502;10.722;2022-10-13T12:28:23;13.50;;;8.70;;
14251;SDS011;7210;51.502;10.722;2022-10-13T12:30:53;10.20;;;8.23;;
14251;SDS011;7210;51.502;10.722;2022-10-13T12:33:26;14.27;;;9.17;;
14251;SDS011;7210;51.502;10.722;2022-10-13T12:36:09;10.60;;;8.30;;
14251;SDS011;7210;51.502;10.722;2022-10-13T12:38:41;13.47;;;9.17;;
14251;SDS011;7210;51.502;10.722;2022-10-13T12:41:17;12.97;;;8.63;;
14251;SDS011;7210;51.502;10.722;2022-10-13T12:43:51;9.10;;;7.83;;
14251;SDS011;7210;51.502;10.722;2022-10-13T12:46:36;9.87;;;8.00;;
14251;SDS011;7210;51.502;10.722;2022-10-13T12:49:05;11.07;;;7.87;;
14251;SDS011;7210;51.502;10.722;2022-10-13T12:51:37;10.60;;;7.57;;
14251;SDS011;7210;51.502;10.722;2022-10-13T12:54:06;11.73;;;7.70;;
14251;SDS011;7210;51.502;10.722;2022-10-13T12:56:44;8.60;;;7.03;;
14251;SDS011;7210;51.502;10.722;2022-10-13T12:59:13;8.77;;;7.43;;
14251;SDS011;7210;51.502;10.722;2022-10-13T13:01:51;8.90;;;7.23;;
14251;SDS011;7210;51.502;10.722;2022-10-13T13:04:28;8.70;;;6.87;;
14251;SDS011;7210;51.502;10.722;2022-10-13T13:07:27;10.87;;;7.23;;
14251;SDS011;7210;51.502;10.722;2022-10-13T13:12:44;10.63;;;6.50;;
14251;SDS011;7210;51.502;10.722;2022-10-13T13:15:26;9.17;;;6.50;;
14251;SDS011;7210;51.502;10.722;2022-10-13T13:20:55;10.07;;;6.63;;
14251;SDS011;7210;51.502;10.722;2022-10-13T13:23:23;11.87;;;7.33;;
14251;SDS011;7210;51.502;10.722;2022-10-13T13:25:59;9.60;;;6.80;;
14251;SDS011;7210;51.502;10.722;2022-10-13T13:28:31;9.63;;;6.60;;
14251;SDS011;7210;51.502;10.722;2022-10-13T13:31:01;9.43;;;6.70;;
14251;SDS011;7210;51.502;10.722;2022-10-13T13:33:29;8.80;;;7.07;;
14251;SDS011;7210;51.502;10.722;2022-10-13T13:35:57;7.43;;;6.53;;
14251;SDS011;7210;51.502;10.722;2022-10-13T13:38:24;11.87;;;6.70;;
14251;SDS011;7210;51.502;10.722;2022-10-13T13:40:52;7.40;;;5.47;;
14251;SDS011;7210;51.502;10.722;2022-10-13T13:43:20;11.03;;;6.27;;
14251;SDS011;7210;51.502;10.722;2022-10-13T13:45:48;7.40;;;5.93;;
14251;SDS011;7210;51.502;10.722;2022-10-13T13:48:16;7.20;;;5.43;;
14251;SDS011;7210;51.502;10.722;2022-10-13T13:50:43;8.23;;;5.47;;
14251;SDS011;7210;51.502;10.722;2022-10-13T13:53:10;7.93;;;5.53;;
14251;SDS011;7210;51.502;10.722;2022-10-13T13:55:38;6.97;;;5.60;;
14251;SDS011;7210;51.502;10.722;2022-10-13T13:58:08;7.77;;;5.70;;
14251;SDS011;7210;51.502;10.722;2022-10-13T14:00:35;7.40;;;5.37;;
14251;SDS011;7210;51.502;10.722;2022-10-13T14:03:04;8.83;;;6.23;;
14251;SDS011;7210;51.502;10.722;2022-10-13T14:05:32;7.57;;;6.40;;
14251;SDS011;7210;51.502;10.722;2022-10-13T14:07:59;8.73;;;6.40;;
14251;SDS011;7210;51.502;10.722;2022-10-13T14:10:26;7.03;;;6.13;;
14251;SDS011;7210;51.502;10.722;2022-10-13T14:12:54;8.77;;;6.00;;
14251;SDS011;7210;51.502;10.722;2022-10-13T14:15:21;9.47;;;6.37;;
14251;SDS011;7210;51.502;10.722;2022-10-13T14:17:50;9.47;;;5.80;;
14251;SDS011;7210;51.502;10.722;2022-10-13T14:20:19;10.23;;;6.37;;
14251;SDS011;7210;51.502;10.722;2022-10-13T14:22:47;8.63;;;6.60;;
14251;SDS011;7210;51.502;10.722;2022-10-13T14:25:15;9.00;;;6.13;;
14251;SDS011;7210;51.502;10.722;2022-10-13T14:27:43;9.23;;;6.37;;
14251;SDS011;7210;51.502;10.722;2022-10-13T14:30:11;8.90;;;6.33;;
14251;SDS011;7210;51.502;10.722;2022-10-13T14:32:39;8.87;;;5.97;;
14251;SDS011;7210;51.502;10.722;2022-10-13T14:35:07;8.63;;;6.53;;
14251;SDS011;7210;51.502;10.722;2022-10-13T14:37:36;9.63;;;5.77;;
14251;SDS011;7210;51.502;10.722;2022-10-13T14:40:04;9.13;;;6.60;;
14251;SDS011;7210;51.502;10.722;2022-10-13T14:42:32;8.77;;;5.90;;
14251;SDS011;7210;51.502;10.722;2022-10-13T14:45:02;9.60;;;6.00;;
14251;SDS011;7210;51.502;10.722;2022-10-13T14:47:31;7.90;;;6.37;;
14251;SDS011;7210;51.502;10.722;2022-10-13T14:49:58;12.73;;;7.43;;
14251;SDS011;7210;51.502;10.722;2022-10-13T14:52:26;10.57;;;6.90;;
14251;SDS011;7210;51.502;10.722;2022-10-13T14:54:55;8.57;;;7.10;;
14251;SDS011;7210;51.502;10.722;2022-10-13T14:57:22;11.73;;;7.43;;
14251;SDS011;7210;51.502;10.722;2022-10-13T14:59:49;9.53;;;6.40;;
14251;SDS011;7210;51.502;10.722;2022-10-13T15:02:17;8.43;;;6.07;;
14251;SDS011;7210;51.502;10.722;2022-10-13T15:04:51;8.43;;;6.20;;
14251;SDS011;7210;51.502;10.722;2022-10-13T15:07:22;9.40;;;6.30;;
14251;SDS011;7210;51.502;10.722;2022-10-13T15:09:50;8.60;;;6.13;;
14251;SDS011;7210;51.502;10.722;2022-10-13T15:12:18;9.03;;;6.60;;
14251;SDS011;7210;51.502;10.722;2022-10-13T15:14:46;11.97;;;7.77;;
14251;SDS011;7210;51.502;10.722;2022-10-13T15:17:13;10.23;;;7.03;;
14251;SDS011;7210;51.502;10.722;2022-10-13T15:19:44;7.93;;;6.40;;
14251;SDS011;7210;51.502;10.722;2022-10-13T15:22:14;9.97;;;6.60;;
14251;SDS011;7210;51.502;10.722;2022-10-13T15:24:41;10.73;;;6.90;;
14251;SDS011;7210;51.502;10.722;2022-10-13T15:27:10;10.70;;;6.77;;
14251;SDS011;7210;51.502;10.722;2022-10-13T15:29:43;10.60;;;7.03;;
14251;SDS011;7210;51.502;10.722;2022-10-13T15:32:13;8.00;;;6.87;;
14251;SDS011;7210;51.502;10.722;2022-10-13T15:34:51;9.30;;;6.47;;
14251;SDS011;7210;51.502;10.722;2022-10-13T15:37:21;12.03;;;10.27;;
14251;SDS011;7210;51.502;10.722;2022-10-13T15:39:50;8.33;;;7.20;;